sensor_id;sensor_type;location;lat;lon;timestamp;pressure;altitude;pressure_sealevel;temperature
71649;BMP180;59492;45.638;11.714;2023-03-03T00:01:09;101134.40;;;18.40
71649;BMP180;59492;45.638;11.714;2023-03-03T00:03:34;101134.20;;;18.38
71649;BMP180;59492;45.638;11.714;2023-03-03T00:06:02;101130.20;;;18.34
71649;BMP180;59492;45.638;11.714;2023-03-03T00:08:28;101130.80;;;18.30
71649;BMP180;59492;45.638;11.714;2023-03-03T00:10:53;101131.20;;;18.30
71649;BMP180;59492;45.638;11.714;2023-03-03T00:13:22;101132.20;;;18.30
71649;BMP180;59492;45.638;11.714;2023-03-03T00:15:48;101132.20;;;18.28
71649;BMP180;59492;45.638;11.714;2023-03-03T00:18:33;101133.20;;;18.26
71649;BMP180;59492;45.638;11.714;2023-03-03T00:21:01;101128.20;;;18.20
71649;BMP180;59492;45.638;11.714;2023-03-03T00:23:35;101125.80;;;18.20
71649;BMP180;59492;45.638;11.714;2023-03-03T00:26:01;101127.00;;;18.20
71649;BMP180;59492;45.638;11.714;2023-03-03T00:28:47;101123.40;;;18.20
71649;BMP180;59492;45.638;11.714;2023-03-03T00:31:19;101122.60;;;18.10
71649;BMP180;59492;45.638;11.714;2023-03-03T00:33:51;101121.00;;;18.12
71649;BMP180;59492;45.638;11.714;2023-03-03T00:36:24;101118.40;;;18.10
71649;BMP180;59492;45.638;11.714;2023-03-03T00:41:43;101113.60;;;18.20
71649;BMP180;59492;45.638;11.714;2023-03-03T00:44:32;101114.00;;;18.20
71649;BMP180;59492;45.638;11.714;2023-03-03T00:47:18;101111.20;;;18.10
71649;BMP180;59492;45.638;11.714;2023-03-03T00:49:47;101110.60;;;18.10
71649;BMP180;59492;45.638;11.714;2023-03-03T00:52:16;101105.80;;;18.10
71649;BMP180;59492;45.638;11.714;2023-03-03T00:54:42;101103.60;;;18.10
71649;BMP180;59492;45.638;11.714;2023-03-03T00:57:08;101105.80;;;18.10
71649;BMP180;59492;45.638;11.714;2023-03-03T00:59:34;101101.00;;;18.10
71649;BMP180;59492;45.638;11.714;2023-03-03T01:02:00;101098.80;;;18.06
71649;BMP180;59492;45.638;11.714;2023-03-03T01:04:25;101101.80;;;18.02
71649;BMP180;59492;45.638;11.714;2023-03-03T01:06:51;101101.20;;;18.00
71649;BMP180;59492;45.638;11.714;2023-03-03T01:09:16;101094.60;;;18.00
71649;BMP180;59492;45.638;11.714;2023-03-03T01:11:42;101091.80;;;18.00
71649;BMP180;59492;45.638;11.714;2023-03-03T01:14:08;101088.20;;;18.00
71649;BMP180;59492;45.638;11.714;2023-03-03T01:16:34;101081.80;;;17.98
71649;BMP180;59492;45.638;11.714;2023-03-03T01:18:59;101081.80;;;17.92
71649;BMP180;59492;45.638;11.714;2023-03-03T01:21:25;101082.80;;;17.90
71649;BMP180;59492;45.638;11.714;2023-03-03T01:23:50;101080.00;;;17.90
71649;BMP180;59492;45.638;11.714;2023-03-03T01:26:16;101076.80;;;17.90
71649;BMP180;59492;45.638;11.714;2023-03-03T01:28:42;101070.20;;;17.90
71649;BMP180;59492;45.638;11.714;2023-03-03T01:31:07;101072.60;;;17.90
71649;BMP180;59492;45.638;11.714;2023-03-03T01:33:34;101068.20;;;17.86
71649;BMP180;59492;45.638;11.714;2023-03-03T01:36:02;101067.80;;;17.80
71649;BMP180;59492;45.638;11.714;2023-03-03T01:38:28;101063.00;;;17.80
71649;BMP180;59492;45.638;11.714;2023-03-03T01:40:56;101064.20;;;17.80
71649;BMP180;59492;45.638;11.714;2023-03-03T01:43:24;101062.00;;;17.80
71649;BMP180;59492;45.638;11.714;2023-03-03T01:48:29;101044.60;;;17.78
71649;BMP180;59492;45.638;11.714;2023-03-03T01:51:06;101044.80;;;17.70
71649;BMP180;59492;45.638;11.714;2023-03-03T01:56:04;101043.60;;;17.70
71649;BMP180;59492;45.638;11.714;2023-03-03T01:58:36;101041.60;;;17.70
71649;BMP180;59492;45.638;11.714;2023-03-03T02:01:07;101036.80;;;17.70
71649;BMP180;59492;45.638;11.714;2023-03-03T02:03:33;101035.20;;;17.70
71649;BMP180;59492;45.638;11.714;2023-03-03T02:06:03;101032.60;;;17.70
71649;BMP180;59492;45.638;11.714;2023-03-03T02:08:44;101032.60;;;17.74
71649;BMP180;59492;45.638;11.714;2023-03-03T02:11:13;101032.20;;;17.74
71649;BMP180;59492;45.638;11.714;2023-03-03T02:13:39;101030.80;;;17.60
71649;BMP180;59492;45.638;11.714;2023-03-03T02:16:05;101030.00;;;17.70
71649;BMP180;59492;45.638;11.714;2023-03-03T02:18:30;101027.40;;;17.70
71649;BMP180;59492;45.638;11.714;2023-03-03T02:21:02;101026.20;;;17.66
71649;BMP180;59492;45.638;11.714;2023-03-03T02:26:17;101018.00;;;17.60
71649;BMP180;59492;45.638;11.714;2023-03-03T02:28:43;101018.40;;;17.60
71649;BMP180;59492;45.638;11.714;2023-03-03T02:31:13;101016.00;;;17.60
71649;BMP180;59492;45.638;11.714;2023-03-03T02:33:41;101012.80;;;17.60
71649;BMP180;59492;45.638;11.714;2023-03-03T02:36:11;101014.20;;;17.60
71649;BMP180;59492;45.638;11.714;2023-03-03T02:38:59;101004.60;;;17.60
71649;BMP180;59492;45.638;11.714;2023-03-03T02:44:01;101000.60;;;17.56
71649;BMP180;59492;45.638;11.714;2023-03-03T02:46:29;101004.80;;;17.52
71649;BMP180;59492;45.638;11.714;2023-03-03T02:48:56;100999.60;;;17.52
71649;BMP180;59492;45.638;11.714;2023-03-03T02:51:22;100996.40;;;17.50
71649;BMP180;59492;45.638;11.714;2023-03-03T02:53:48;100994.00;;;17.50
71649;BMP180;59492;45.638;11.714;2023-03-03T02:56:14;100996.40;;;17.50
71649;BMP180;59492;45.638;11.714;2023-03-03T02:58:39;100996.60;;;17.50
71649;BMP180;59492;45.638;11.714;2023-03-03T03:01:05;100990.00;;;17.50
71649;BMP180;59492;45.638;11.714;2023-03-03T03:03:31;100989.20;;;17.50
71649;BMP180;59492;45.638;11.714;2023-03-03T03:05:57;100987.20;;;17.50
71649;BMP180;59492;45.638;11.714;2023-03-03T03:08:23;100984.40;;;17.48
71649;BMP180;59492;45.638;11.714;2023-03-03T03:10:49;100983.80;;;17.50
71649;BMP180;59492;45.638;11.714;2023-03-03T03:13:15;100981.40;;;17.48
71649;BMP180;59492;45.638;11.714;2023-03-03T03:15:41;100980.20;;;17.50
71649;BMP180;59492;45.638;11.714;2023-03-03T03:18:06;100974.60;;;17.50
71649;BMP180;59492;45.638;11.714;2023-03-03T03:20:36;100973.00;;;17.50
71649;BMP180;59492;45.638;11.714;2023-03-03T03:23:02;100973.80;;;17.50
71649;BMP180;59492;45.638;11.714;2023-03-03T03:25:27;100974.60;;;17.50
71649;BMP180;59492;45.638;11.714;2023-03-03T03:27:53;100971.60;;;17.50
71649;BMP180;59492;45.638;11.714;2023-03-03T03:30:19;100964.60;;;17.50
71649;BMP180;59492;45.638;11.714;2023-03-03T03:32:45;100967.20;;;17.48
71649;BMP180;59492;45.638;11.714;2023-03-03T03:35:11;100968.20;;;17.44
71649;BMP180;59492;45.638;11.714;2023-03-03T03:37:38;100968.80;;;17.40
71649;BMP180;59492;45.638;11.714;2023-03-03T03:40:04;100972.20;;;17.42
71649;BMP180;59492;45.638;11.714;2023-03-03T03:42:31;100969.60;;;17.40
71649;BMP180;59492;45.638;11.714;2023-03-03T03:44:57;100967.20;;;17.40
71649;BMP180;59492;45.638;11.714;2023-03-03T03:47:22;100965.80;;;17.40
71649;BMP180;59492;45.638;11.714;2023-03-03T03:49:48;100965.60;;;17.40
71649;BMP180;59492;45.638;11.714;2023-03-03T03:52:13;100962.60;;;17.40
71649;BMP180;59492;45.638;11.714;2023-03-03T03:54:39;100962.60;;;17.36
71649;BMP180;59492;45.638;11.714;2023-03-03T03:57:05;100961.80;;;17.34
71649;BMP180;59492;45.638;11.714;2023-03-03T03:59:30;100958.00;;;17.32
71649;BMP180;59492;45.638;11.714;2023-03-03T04:01:56;100957.20;;;17.34
71649;BMP180;59492;45.638;11.714;2023-03-03T04:04:22;100959.40;;;17.30
71649;BMP180;59492;45.638;11.714;2023-03-03T04:06:48;100958.20;;;17.30
71649;BMP180;59492;45.638;11.714;2023-03-03T04:09:14;100958.60;;;17.30
71649;BMP180;59492;45.638;11.714;2023-03-03T04:11:40;100957.40;;;17.30
71649;BMP180;59492;45.638;11.714;2023-03-03T04:14:07;100956.40;;;17.30
71649;BMP180;59492;45.638;11.714;2023-03-03T04:16:32;100954.80;;;17.30
71649;BMP180;59492;45.638;11.714;2023-03-03T04:18:58;100955.00;;;17.30
71649;BMP180;59492;45.638;11.714;2023-03-03T04:21:24;100955.80;;;17.30
71649;BMP180;59492;45.638;11.714;2023-03-03T04:23:50;100954.60;;;17.38
71649;BMP180;59492;45.638;11.714;2023-03-03T04:26:17;100958.40;;;17.38
71649;BMP180;59492;45.638;11.714;2023-03-03T04:28:43;100955.80;;;17.38
71649;BMP180;59492;45.638;11.714;2023-03-03T04:31:09;100951.60;;;17.30
71649;BMP180;59492;45.638;11.714;2023-03-03T04:33:35;100951.60;;;17.30
71649;BMP180;59492;45.638;11.714;2023-03-03T04:36:01;100950.40;;;17.30
71649;BMP180;59492;45.638;11.714;2023-03-03T04:38:26;100953.60;;;17.30
71649;BMP180;59492;45.638;11.714;2023-03-03T04:40:52;100948.60;;;17.30
71649;BMP180;59492;45.638;11.714;2023-03-03T04:43:18;100955.00;;;17.30
71649;BMP180;59492;45.638;11.714;2023-03-03T04:45:43;100952.60;;;17.28
71649;BMP180;59492;45.638;11.714;2023-03-03T04:48:09;100951.40;;;17.26
71649;BMP180;59492;45.638;11.714;2023-03-03T04:50:35;100950.60;;;17.24
71649;BMP180;59492;45.638;11.714;2023-03-03T04:53:01;100954.60;;;17.24
71649;BMP180;59492;45.638;11.714;2023-03-03T04:55:26;100952.20;;;17.22
71649;BMP180;59492;45.638;11.714;2023-03-03T04:57:52;100952.60;;;17.20
71649;BMP180;59492;45.638;11.714;2023-03-03T05:00:18;100953.20;;;17.20
71649;BMP180;59492;45.638;11.714;2023-03-03T05:02:43;100951.40;;;17.20
71649;BMP180;59492;45.638;11.714;2023-03-03T05:05:09;100953.20;;;17.20
71649;BMP180;59492;45.638;11.714;2023-03-03T05:07:35;100957.40;;;17.20
71649;BMP180;59492;45.638;11.714;2023-03-03T05:10:01;100957.00;;;17.20
71649;BMP180;59492;45.638;11.714;2023-03-03T05:12:26;100954.20;;;17.18
71649;BMP180;59492;45.638;11.714;2023-03-03T05:14:52;100955.60;;;17.16
71649;BMP180;59492;45.638;11.714;2023-03-03T05:17:18;100954.20;;;17.16
71649;BMP180;59492;45.638;11.714;2023-03-03T05:19:43;100949.40;;;17.14
71649;BMP180;59492;45.638;11.714;2023-03-03T05:22:09;100943.20;;;17.10
71649;BMP180;59492;45.638;11.714;2023-03-03T05:24:35;100946.40;;;17.10
71649;BMP180;59492;45.638;11.714;2023-03-03T05:27:00;100949.40;;;17.10
71649;BMP180;59492;45.638;11.714;2023-03-03T05:29:28;100952.20;;;17.20
71649;BMP180;59492;45.638;11.714;2023-03-03T05:31:56;100951.00;;;17.20
71649;BMP180;59492;45.638;11.714;2023-03-03T05:34:22;100947.80;;;17.20
71649;BMP180;59492;45.638;11.714;2023-03-03T05:36:48;100945.60;;;17.16
71649;BMP180;59492;45.638;11.714;2023-03-03T05:39:14;100945.40;;;17.12
71649;BMP180;59492;45.638;11.714;2023-03-03T05:41:39;100947.40;;;17.12
71649;BMP180;59492;45.638;11.714;2023-03-03T05:44:05;100953.00;;;17.10
71649;BMP180;59492;45.638;11.714;2023-03-03T05:46:31;100953.40;;;17.10
71649;BMP180;59492;45.638;11.714;2023-03-03T05:48:56;100952.80;;;17.10
71649;BMP180;59492;45.638;11.714;2023-03-03T05:51:22;100956.20;;;17.10
71649;BMP180;59492;45.638;11.714;2023-03-03T05:53:47;100958.60;;;17.10
71649;BMP180;59492;45.638;11.714;2023-03-03T05:56:13;100960.00;;;17.10
71649;BMP180;59492;45.638;11.714;2023-03-03T05:58:39;100960.40;;;17.10
71649;BMP180;59492;45.638;11.714;2023-03-03T06:01:04;100962.80;;;17.10
71649;BMP180;59492;45.638;11.714;2023-03-03T06:03:30;100963.20;;;17.10
71649;BMP180;59492;45.638;11.714;2023-03-03T06:05:56;100961.80;;;17.10
71649;BMP180;59492;45.638;11.714;2023-03-03T06:08:21;100962.60;;;17.10
71649;BMP180;59492;45.638;11.714;2023-03-03T06:10:47;100965.00;;;17.10
71649;BMP180;59492;45.638;11.714;2023-03-03T06:13:13;100964.60;;;17.10
71649;BMP180;59492;45.638;11.714;2023-03-03T06:15:38;100971.00;;;17.12
71649;BMP180;59492;45.638;11.714;2023-03-03T06:18:04;100967.20;;;17.16
71649;BMP180;59492;45.638;11.714;2023-03-03T06:20:30;100965.80;;;17.20
71649;BMP180;59492;45.638;11.714;2023-03-03T06:22:56;100968.40;;;17.20
71649;BMP180;59492;45.638;11.714;2023-03-03T06:25:21;100967.20;;;17.24
71649;BMP180;59492;45.638;11.714;2023-03-03T06:27:47;100969.40;;;17.30
71649;BMP180;59492;45.638;11.714;2023-03-03T06:30:13;100975.60;;;17.30
71649;BMP180;59492;45.638;11.714;2023-03-03T06:32:39;100979.60;;;17.30
71649;BMP180;59492;45.638;11.714;2023-03-03T06:35:05;100980.40;;;17.30
71649;BMP180;59492;45.638;11.714;2023-03-03T06:37:30;100981.60;;;17.36
71649;BMP180;59492;45.638;11.714;2023-03-03T06:39:56;100988.40;;;17.40
71649;BMP180;59492;45.638;11.714;2023-03-03T06:42:22;100988.40;;;17.40
71649;BMP180;59492;45.638;11.714;2023-03-03T06:44:49;100992.20;;;17.40
71649;BMP180;59492;45.638;11.714;2023-03-03T06:47:15;100992.60;;;17.48
71649;BMP180;59492;45.638;11.714;2023-03-03T06:49:41;100995.40;;;17.50
71649;BMP180;59492;45.638;11.714;2023-03-03T06:52:19;100998.60;;;17.60
71649;BMP180;59492;45.638;11.714;2023-03-03T06:54:46;101003.60;;;17.62
71649;BMP180;59492;45.638;11.714;2023-03-03T06:57:31;101008.00;;;17.70
71649;BMP180;59492;45.638;11.714;2023-03-03T07:00:11;101008.40;;;17.70
71649;BMP180;59492;45.638;11.714;2023-03-03T07:02:39;101009.00;;;17.72
71649;BMP180;59492;45.638;11.714;2023-03-03T07:05:10;101005.60;;;17.80
71649;BMP180;59492;45.638;11.714;2023-03-03T07:07:37;101008.40;;;17.80
71649;BMP180;59492;45.638;11.714;2023-03-03T07:10:12;101012.40;;;17.90
71649;BMP180;59492;45.638;11.714;2023-03-03T07:12:40;101015.00;;;17.90
71649;BMP180;59492;45.638;11.714;2023-03-03T07:15:16;101018.00;;;18.00
71649;BMP180;59492;45.638;11.714;2023-03-03T07:17:47;101013.60;;;18.10
71649;BMP180;59492;45.638;11.714;2023-03-03T07:20:35;101017.20;;;18.20
71649;BMP180;59492;45.638;11.714;2023-03-03T07:25:49;101010.60;;;18.40
71649;BMP180;59492;45.638;11.714;2023-03-03T07:28:25;101014.60;;;18.50
71649;BMP180;59492;45.638;11.714;2023-03-03T07:30:52;101013.20;;;18.60
71649;BMP180;59492;45.638;11.714;2023-03-03T07:33:30;101019.20;;;18.80
71649;BMP180;59492;45.638;11.714;2023-03-03T07:36:01;101020.00;;;19.02
71649;BMP180;59492;45.638;11.714;2023-03-03T07:38:41;101021.60;;;19.30
71649;BMP180;59492;45.638;11.714;2023-03-03T07:41:14;101028.20;;;19.56
71649;BMP180;59492;45.638;11.714;2023-03-03T07:43:52;101034.80;;;19.80
71649;BMP180;59492;45.638;11.714;2023-03-03T07:46:40;101035.40;;;20.04
71649;BMP180;59492;45.638;11.714;2023-03-03T07:49:34;101038.40;;;20.26
71649;BMP180;59492;45.638;11.714;2023-03-03T07:52:01;101037.60;;;20.36
71649;BMP180;59492;45.638;11.714;2023-03-03T07:54:44;101040.60;;;20.40
71649;BMP180;59492;45.638;11.714;2023-03-03T07:57:41;101048.00;;;20.40
71649;BMP180;59492;45.638;11.714;2023-03-03T08:03:03;101051.60;;;20.50
71649;BMP180;59492;45.638;11.714;2023-03-03T08:05:32;101055.60;;;20.60
71649;BMP180;59492;45.638;11.714;2023-03-03T08:10:52;101053.60;;;20.70
71649;BMP180;59492;45.638;11.714;2023-03-03T08:13:23;101056.60;;;20.70
71649;BMP180;59492;45.638;11.714;2023-03-03T08:15:51;101052.80;;;20.80
71649;BMP180;59492;45.638;11.714;2023-03-03T08:18:29;101062.20;;;20.80
71649;BMP180;59492;45.638;11.714;2023-03-03T08:20:59;101066.40;;;20.86
71649;BMP180;59492;45.638;11.714;2023-03-03T08:23:25;101069.60;;;20.90
71649;BMP180;59492;45.638;11.714;2023-03-03T08:25:51;101070.00;;;20.90
71649;BMP180;59492;45.638;11.714;2023-03-03T08:28:18;101065.40;;;20.90
71649;BMP180;59492;45.638;11.714;2023-03-03T08:30:44;101067.00;;;20.90
71649;BMP180;59492;45.638;11.714;2023-03-03T08:33:11;101069.80;;;20.90
71649;BMP180;59492;45.638;11.714;2023-03-03T08:35:41;101072.40;;;20.90
71649;BMP180;59492;45.638;11.714;2023-03-03T08:38:14;101069.80;;;20.90
71649;BMP180;59492;45.638;11.714;2023-03-03T08:40:41;101072.00;;;20.80
71649;BMP180;59492;45.638;11.714;2023-03-03T08:43:07;101067.00;;;20.80
71649;BMP180;59492;45.638;11.714;2023-03-03T08:45:34;101070.20;;;20.76
71649;BMP180;59492;45.638;11.714;2023-03-03T08:48:00;101068.80;;;20.70
71649;BMP180;59492;45.638;11.714;2023-03-03T08:50:27;101069.80;;;20.70
71649;BMP180;59492;45.638;11.714;2023-03-03T08:52:55;101064.60;;;20.70
71649;BMP180;59492;45.638;11.714;2023-03-03T08:55:21;101064.40;;;20.70
71649;BMP180;59492;45.638;11.714;2023-03-03T08:57:47;101062.40;;;20.68
71649;BMP180;59492;45.638;11.714;2023-03-03T09:00:16;101065.80;;;20.60
71649;BMP180;59492;45.638;11.714;2023-03-03T09:02:42;101065.40;;;20.60
71649;BMP180;59492;45.638;11.714;2023-03-03T09:05:08;101067.20;;;20.60
71649;BMP180;59492;45.638;11.714;2023-03-03T09:07:35;101066.40;;;20.60
71649;BMP180;59492;45.638;11.714;2023-03-03T09:10:02;101065.80;;;20.60
71649;BMP180;59492;45.638;11.714;2023-03-03T09:12:36;101062.60;;;20.60
71649;BMP180;59492;45.638;11.714;2023-03-03T09:17:40;101063.60;;;20.60
71649;BMP180;59492;45.638;11.714;2023-03-03T09:20:36;101068.80;;;20.60
71649;BMP180;59492;45.638;11.714;2023-03-03T09:23:32;101073.40;;;20.52
71649;BMP180;59492;45.638;11.714;2023-03-03T09:28:47;101077.60;;;20.50
71649;BMP180;59492;45.638;11.714;2023-03-03T09:31:23;101074.60;;;20.40
71649;BMP180;59492;45.638;11.714;2023-03-03T09:33:49;101080.40;;;20.40
71649;BMP180;59492;45.638;11.714;2023-03-03T09:36:35;101079.40;;;20.40
71649;BMP180;59492;45.638;11.714;2023-03-03T09:39:14;101080.20;;;20.30
71649;BMP180;59492;45.638;11.714;2023-03-03T09:44:29;101081.60;;;20.20
71649;BMP180;59492;45.638;11.714;2023-03-03T09:52:32;101082.20;;;20.10
71649;BMP180;59492;45.638;11.714;2023-03-03T09:55:22;101083.60;;;20.02
71649;BMP180;59492;45.638;11.714;2023-03-03T09:58:52;101086.00;;;20.00
71649;BMP180;59492;45.638;11.714;2023-03-03T10:07:10;101084.00;;;19.90
71649;BMP180;59492;45.638;11.714;2023-03-03T10:18:16;101085.20;;;19.80
71649;BMP180;59492;45.638;11.714;2023-03-03T10:21:20;101089.20;;;19.80
71649;BMP180;59492;45.638;11.714;2023-03-03T10:36:50;101095.60;;;19.80
71649;BMP180;59492;45.638;11.714;2023-03-03T11:01:22;101099.60;;;19.70
71649;BMP180;59492;45.638;11.714;2023-03-03T11:06:52;101096.20;;;19.70
71649;BMP180;59492;45.638;11.714;2023-03-03T11:15:05;101101.00;;;19.70
71649;BMP180;59492;45.638;11.714;2023-03-03T11:17:44;101101.20;;;19.70
71649;BMP180;59492;45.638;11.714;2023-03-03T11:22:52;101094.40;;;19.70
71649;BMP180;59492;45.638;11.714;2023-03-03T11:28:21;101096.80;;;19.70
71649;BMP180;59492;45.638;11.714;2023-03-03T11:31:03;101092.20;;;19.70
71649;BMP180;59492;45.638;11.714;2023-03-03T11:33:55;101091.80;;;19.70
71649;BMP180;59492;45.638;11.714;2023-03-03T11:36:33;101086.60;;;19.70
71649;BMP180;59492;45.638;11.714;2023-03-03T11:39:08;101081.60;;;19.70
71649;BMP180;59492;45.638;11.714;2023-03-03T11:47:47;101075.40;;;19.70
71649;BMP180;59492;45.638;11.714;2023-03-03T11:55:20;101065.60;;;19.70
71649;BMP180;59492;45.638;11.714;2023-03-03T12:00:27;101066.40;;;19.70
71649;BMP180;59492;45.638;11.714;2023-03-03T12:13:55;101055.00;;;19.60
71649;BMP180;59492;45.638;11.714;2023-03-03T12:35:23;101041.40;;;19.50
71649;BMP180;59492;45.638;11.714;2023-03-03T12:40:34;101039.60;;;19.50
71649;BMP180;59492;45.638;11.714;2023-03-03T12:48:18;101037.80;;;19.40
71649;BMP180;59492;45.638;11.714;2023-03-03T12:50:49;101038.40;;;19.40
71649;BMP180;59492;45.638;11.714;2023-03-03T12:53:47;101038.40;;;19.40
71649;BMP180;59492;45.638;11.714;2023-03-03T12:59:38;101038.60;;;19.40
71649;BMP180;59492;45.638;11.714;2023-03-03T13:05:08;101039.80;;;19.30
71649;BMP180;59492;45.638;11.714;2023-03-03T13:08:00;101035.20;;;19.30
71649;BMP180;59492;45.638;11.714;2023-03-03T13:10:35;101028.80;;;19.30
71649;BMP180;59492;45.638;11.714;2023-03-03T13:13:14;101029.00;;;19.30
71649;BMP180;59492;45.638;11.714;2023-03-03T13:16:02;101028.80;;;19.30
71649;BMP180;59492;45.638;11.714;2023-03-03T13:21:37;101027.40;;;19.20
71649;BMP180;59492;45.638;11.714;2023-03-03T13:29:26;101024.60;;;19.20
71649;BMP180;59492;45.638;11.714;2023-03-03T13:31:59;101023.20;;;19.20
71649;BMP180;59492;45.638;11.714;2023-03-03T13:37:11;101024.80;;;19.10
71649;BMP180;59492;45.638;11.714;2023-03-03T13:45:00;101025.20;;;19.02
71649;BMP180;59492;45.638;11.714;2023-03-03T13:47:37;101024.80;;;19.04
71649;BMP180;59492;45.638;11.714;2023-03-03T13:50:42;101019.00;;;19.00
71649;BMP180;59492;45.638;11.714;2023-03-03T13:55:44;101014.80;;;19.00
71649;BMP180;59492;45.638;11.714;2023-03-03T13:58:30;101010.40;;;18.98
71649;BMP180;59492;45.638;11.714;2023-03-03T14:01:18;101010.40;;;18.90
71649;BMP180;59492;45.638;11.714;2023-03-03T14:06:54;101003.80;;;18.90
71649;BMP180;59492;45.638;11.714;2023-03-03T14:09:33;101006.00;;;18.88
71649;BMP180;59492;45.638;11.714;2023-03-03T14:14:47;101002.80;;;18.80
71649;BMP180;59492;45.638;11.714;2023-03-03T14:17:33;100996.60;;;18.80
71649;BMP180;59492;45.638;11.714;2023-03-03T14:23:15;100992.40;;;18.76
71649;BMP180;59492;45.638;11.714;2023-03-03T14:25:56;100992.00;;;18.70
71649;BMP180;59492;45.638;11.714;2023-03-03T14:28:27;100999.20;;;18.70
71649;BMP180;59492;45.638;11.714;2023-03-03T14:30:55;100999.60;;;18.72
71649;BMP180;59492;45.638;11.714;2023-03-03T14:33:25;101002.60;;;18.70
71649;BMP180;59492;45.638;11.714;2023-03-03T14:38:44;100997.60;;;18.70
71649;BMP180;59492;45.638;11.714;2023-03-03T14:43:39;100995.40;;;18.70
71649;BMP180;59492;45.638;11.714;2023-03-03T14:48:56;100997.60;;;18.70
71649;BMP180;59492;45.638;11.714;2023-03-03T14:51:26;100998.00;;;18.70
71649;BMP180;59492;45.638;11.714;2023-03-03T14:53:54;100995.20;;;18.70
71649;BMP180;59492;45.638;11.714;2023-03-03T14:56:31;100993.00;;;18.70
71649;BMP180;59492;45.638;11.714;2023-03-03T14:59:18;100985.00;;;18.70
71649;BMP180;59492;45.638;11.714;2023-03-03T15:01:44;100984.00;;;18.64
71649;BMP180;59492;45.638;11.714;2023-03-03T15:09:26;100976.40;;;18.60
71649;BMP180;59492;45.638;11.714;2023-03-03T15:11:57;100974.20;;;18.60
71649;BMP180;59492;45.638;11.714;2023-03-03T15:14:37;100972.60;;;18.60
71649;BMP180;59492;45.638;11.714;2023-03-03T15:22:49;100973.40;;;18.60
71649;BMP180;59492;45.638;11.714;2023-03-03T15:27:44;100973.80;;;18.64
71649;BMP180;59492;45.638;11.714;2023-03-03T15:33:03;100979.00;;;18.70
71649;BMP180;59492;45.638;11.714;2023-03-03T15:38:25;100975.60;;;18.70
71649;BMP180;59492;45.638;11.714;2023-03-03T15:41:04;100981.20;;;18.70
71649;BMP180;59492;45.638;11.714;2023-03-03T15:43:36;100980.40;;;18.70
71649;BMP180;59492;45.638;11.714;2023-03-03T15:52:08;100977.80;;;18.80
71649;BMP180;59492;45.638;11.714;2023-03-03T16:03:39;100983.00;;;18.80
71649;BMP180;59492;45.638;11.714;2023-03-03T16:06:27;100984.00;;;18.80
71649;BMP180;59492;45.638;11.714;2023-03-03T16:14:56;100980.60;;;18.80
71649;BMP180;59492;45.638;11.714;2023-03-03T16:17:51;100982.40;;;18.80
71649;BMP180;59492;45.638;11.714;2023-03-03T16:23:20;100985.20;;;18.80
71649;BMP180;59492;45.638;11.714;2023-03-03T16:28:46;100987.60;;;18.80
71649;BMP180;59492;45.638;11.714;2023-03-03T16:31:36;100990.60;;;18.80
71649;BMP180;59492;45.638;11.714;2023-03-03T16:34:17;100988.80;;;18.80
71649;BMP180;59492;45.638;11.714;2023-03-03T16:50:35;101004.60;;;18.74
71649;BMP180;59492;45.638;11.714;2023-03-03T17:07:18;101022.20;;;18.68
71649;BMP180;59492;45.638;11.714;2023-03-03T17:15:37;101031.20;;;18.60
71649;BMP180;59492;45.638;11.714;2023-03-03T17:20:46;101020.20;;;18.60
71649;BMP180;59492;45.638;11.714;2023-03-03T17:40:11;101043.40;;;18.60
71649;BMP180;59492;45.638;11.714;2023-03-03T17:45:23;101045.00;;;18.56
71649;BMP180;59492;45.638;11.714;2023-03-03T17:48:07;101049.00;;;18.58
71649;BMP180;59492;45.638;11.714;2023-03-03T17:56:28;101057.60;;;18.50
71649;BMP180;59492;45.638;11.714;2023-03-03T18:15:57;101082.60;;;18.50
71649;BMP180;59492;45.638;11.714;2023-03-03T18:35:33;101115.80;;;18.40
71649;BMP180;59492;45.638;11.714;2023-03-03T18:41:11;101122.00;;;18.40
71649;BMP180;59492;45.638;11.714;2023-03-03T18:54:22;101125.20;;;18.40
71649;BMP180;59492;45.638;11.714;2023-03-03T19:04:41;101138.80;;;18.36
71649;BMP180;59492;45.638;11.714;2023-03-03T19:07:27;101147.60;;;18.40
71649;BMP180;59492;45.638;11.714;2023-03-03T19:09:59;101149.00;;;18.36
71649;BMP180;59492;45.638;11.714;2023-03-03T19:12:53;101150.00;;;18.40
71649;BMP180;59492;45.638;11.714;2023-03-03T19:18:00;101159.20;;;18.40
71649;BMP180;59492;45.638;11.714;2023-03-03T19:23:30;101158.40;;;18.40
71649;BMP180;59492;45.638;11.714;2023-03-03T19:32:30;101168.40;;;18.50
71649;BMP180;59492;45.638;11.714;2023-03-03T19:35:39;101164.60;;;18.50
71649;BMP180;59492;45.638;11.714;2023-03-03T19:47:02;101184.20;;;18.60
71649;BMP180;59492;45.638;11.714;2023-03-03T19:49:53;101184.80;;;18.60
71649;BMP180;59492;45.638;11.714;2023-03-03T20:05:38;101202.40;;;18.76
71649;BMP180;59492;45.638;11.714;2023-03-03T20:09:03;101207.40;;;18.80
71649;BMP180;59492;45.638;11.714;2023-03-03T20:16:42;101216.60;;;18.90
71649;BMP180;59492;45.638;11.714;2023-03-03T20:19:39;101224.20;;;19.00
71649;BMP180;59492;45.638;11.714;2023-03-03T20:22:26;101225.40;;;18.94
71649;BMP180;59492;45.638;11.714;2023-03-03T20:27:49;101232.60;;;19.00
71649;BMP180;59492;45.638;11.714;2023-03-03T20:33:19;101232.40;;;19.00
71649;BMP180;59492;45.638;11.714;2023-03-03T20:47:00;101249.60;;;19.10
71649;BMP180;59492;45.638;11.714;2023-03-03T20:53:02;101255.00;;;19.10
71649;BMP180;59492;45.638;11.714;2023-03-03T20:56:00;101254.60;;;19.16
71649;BMP180;59492;45.638;11.714;2023-03-03T21:02:05;101253.00;;;19.12
71649;BMP180;59492;45.638;11.714;2023-03-03T21:04:32;101258.40;;;19.20
71649;BMP180;59492;45.638;11.714;2023-03-03T21:07:02;101262.40;;;19.20